Time;durP1;ratioP1;P1;durP2;ratioP2;P2;SDS_P1;SDS_P2;PMS_P1;PMS_P2;Temp;Humidity;BMP_temperature;BMP_pressure;BME280_temperature;BME280_humidity;BME280_pressure;Samples;Min_cycle;Max_cycle;Signal;HPM_P1;HPM_P2
2023/01/11 00:01:26;;;;;;;0.88;0.60;;;;;;;7.47;51.30;100625.47;5066051;28;20055;-70
2023/01/11 00:03:54;;;;;;;0.52;0.47;;;;;;;7.49;51.35;100623.50;5067661;28;20075;-70
2023/01/11 00:06:25;;;;;;;0.88;0.50;;;;;;;7.50;51.67;100619.78;5067899;28;20041;-70
2023/01/11 00:08:55;;;;;;;0.65;0.50;;;;;;;7.51;51.54;100620.66;5068052;28;20068;-70
2023/01/11 00:11:22;;;;;;;0.68;0.52;;;;;;;7.52;51.64;100623.22;5067607;28;20049;-70
2023/01/11 00:13:50;;;;;;;0.98;0.60;;;;;;;7.53;51.60;100624.09;5067903;28;20048;-70
2023/01/11 00:16:19;;;;;;;1.27;0.60;;;;;;;7.55;51.58;100614.84;5067776;28;20044;-70
2023/01/11 00:18:47;;;;;;;0.70;0.50;;;;;;;7.54;51.36;100615.81;5067788;28;20044;-71
2023/01/11 00:21:15;;;;;;;1.23;0.57;;;;;;;7.55;51.47;100614.84;5067278;28;20037;-70
2023/01/11 00:23:43;;;;;;;0.88;0.40;;;;;;;7.56;51.71;100611.13;5066798;28;20393;-69
2023/01/11 00:26:12;;;;;;;0.90;0.50;;;;;;;7.59;51.33;100610.03;5067498;28;20048;-69
2023/01/11 00:28:40;;;;;;;0.68;0.50;;;;;;;7.60;51.42;100602.72;5068169;28;20070;-70
2023/01/11 00:31:08;;;;;;;0.70;0.43;;;;;;;7.61;51.73;100604.44;5065706;28;20521;-69
2023/01/11 00:33:37;;;;;;;0.75;0.50;;;;;;;7.62;51.67;100598.88;5067934;28;20045;-70
2023/01/11 00:36:06;;;;;;;0.60;0.50;;;;;;;7.63;51.48;100600.59;5067162;28;20033;-70
2023/01/11 00:38:52;;;;;;;0.88;0.60;;;;;;;7.63;51.62;100597.88;5067365;28;20442;-70
2023/01/11 00:49:43;;;;;;;0.95;0.50;;;;;;;7.65;51.44;100604.09;5066508;28;20135;-70
2023/01/11 00:52:11;;;;;;;2.05;0.63;;;;;;;7.66;51.71;100591.34;5067189;28;20082;-70
2023/01/11 00:54:40;;;;;;;1.25;0.63;;;;;;;7.68;51.69;100578.47;5066328;28;20102;-70
2023/01/11 00:57:09;;;;;;;0.55;0.50;;;;;;;7.69;51.49;100574.72;5067156;28;20525;-70
2023/01/11 00:59:39;;;;;;;1.65;0.77;;;;;;;7.70;51.68;100574.63;5065795;28;20207;-71
2023/01/11 01:02:08;;;;;;;1.40;0.80;;;;;;;7.72;51.67;100577.22;5067008;28;20105;-70
2023/01/11 01:04:37;;;;;;;1.42;0.55;;;;;;;7.73;51.40;100584.41;5065532;28;20040;-70
2023/01/11 01:07:07;;;;;;;2.42;0.70;;;;;;;7.75;51.59;100574.25;5066798;28;20044;-70
2023/01/11 01:09:35;;;;;;;1.70;0.80;;;;;;;7.74;51.94;100587.00;5066030;28;20558;-71
2023/01/11 01:12:03;;;;;;;1.23;0.80;;;;;;;7.76;51.47;100574.16;5066744;28;20044;-72
2023/01/11 01:14:31;;;;;;;1.50;0.80;;;;;;;7.77;51.85;100577.69;5065839;28;20052;-72
2023/01/11 01:17:01;;;;;;;1.90;0.95;;;;;;;7.79;51.61;100573.88;5066128;28;20501;-74
2023/01/11 01:19:30;;;;;;;3.08;1.23;;;;;;;7.79;51.83;100571.16;5066248;28;20048;-76
2023/01/11 01:21:59;;;;;;;1.83;1.20;;;;;;;7.80;51.58;100577.47;5066499;28;20537;-74
2023/01/11 01:24:29;;;;;;;1.85;0.95;;;;;;;7.81;51.91;100579.22;5066339;28;20245;-75
2023/01/11 01:26:58;;;;;;;1.85;1.10;;;;;;;7.80;51.86;100574.75;5066946;28;20362;-75
2023/01/11 01:29:26;;;;;;;1.55;0.90;;;;;;;7.81;51.75;100587.38;5066108;28;20045;-75
2023/01/11 01:31:54;;;;;;;1.13;0.80;;;;;;;7.82;52.05;100564.59;5066002;28;20501;-75
2023/01/11 01:34:22;;;;;;;1.10;0.80;;;;;;;7.82;51.79;100559.16;5064936;28;20040;-74
2023/01/11 01:36:49;;;;;;;0.93;0.80;;;;;;;7.81;51.40;100558.28;5066576;28;20503;-75
2023/01/11 01:39:17;;;;;;;2.90;1.08;;;;;;;7.82;51.70;100553.69;5064763;28;20049;-75
2023/01/11 01:41:47;;;;;;;1.23;0.82;;;;;;;7.84;51.72;100555.31;5066049;28;20044;-75
2023/01/11 01:44:52;;;;;;;1.42;0.73;;;;;;;7.83;52.09;100552.72;5066105;28;20052;-75
2023/01/11 01:47:24;;;;;;;1.10;0.70;;;;;;;7.82;51.96;100542.81;5065027;28;20045;-75
2023/01/11 01:49:54;;;;;;;2.03;0.80;;;;;;;7.80;52.12;100545.66;5065262;28;20136;-74
2023/01/11 01:52:27;;;;;;;0.98;0.70;;;;;;;7.82;52.06;100546.41;5065944;28;20056;-72
2023/01/11 01:55:00;;;;;;;1.00;0.70;;;;;;;7.83;52.39;100531.78;5065965;28;20052;-75
2023/01/11 01:57:33;;;;;;;0.88;0.50;;;;;;;7.83;52.20;100531.78;5066540;28;20037;-74
2023/01/11 02:00:06;;;;;;;0.73;0.60;;;;;;;7.86;52.25;100533.38;5064861;28;20154;-73
2023/01/11 02:02:36;;;;;;;0.93;0.60;;;;;;;7.85;51.85;100532.50;5065471;28;20454;-75
2023/01/11 02:05:06;;;;;;;1.10;0.50;;;;;;;7.88;51.81;100532.25;5064124;28;20048;-75
2023/01/11 02:07:37;;;;;;;1.35;0.70;;;;;;;7.88;52.00;100526.81;5066455;28;20284;-75
2023/01/11 02:10:09;;;;;;;1.25;0.77;;;;;;;7.89;52.06;100527.69;5063514;28;20124;-75
2023/01/11 02:12:41;;;;;;;0.77;0.70;;;;;;;7.91;52.34;100532.03;5066178;28;20040;-74
2023/01/11 02:15:10;;;;;;;1.13;0.68;;;;;;;7.88;52.07;100532.25;5065925;28;20461;-73
2023/01/11 02:17:38;;;;;;;0.77;0.55;;;;;;;7.91;52.15;100522.97;5070075;28;20045;-74
2023/01/11 02:20:19;;;;;;;1.23;0.47;;;;;;;7.94;52.72;100515.41;5069173;28;20091;-73
2023/01/11 02:23:09;;;;;;;0.43;0.40;;;;;;;7.93;53.33;100523.69;5069999;28;20413;-75
2023/01/11 02:25:58;;;;;;;0.95;0.70;;;;;;;7.93;53.37;100512.81;5069359;28;20127;-76
2023/01/11 02:28:33;;;;;;;1.17;0.57;;;;;;;7.90;52.82;100511.22;5069861;28;20515;-75
2023/01/11 02:31:10;;;;;;;0.75;0.50;;;;;;;7.88;53.26;100499.56;5068970;28;20053;-75
2023/01/11 02:33:47;;;;;;;0.50;0.50;;;;;;;7.86;53.08;100503.41;5067805;28;20040;-75
2023/01/11 02:36:26;;;;;;;0.80;0.60;;;;;;;7.83;53.51;100498.22;5069427;28;20047;-75
2023/01/11 02:38:57;;;;;;;1.50;0.60;;;;;;;7.79;53.07;100494.00;5067931;28;20425;-75
2023/01/11 02:45:00;;;;;;;0.55;0.50;;;;;;;7.74;53.73;100491.66;5067447;28;20041;-75
2023/01/11 02:47:18;;;;;;;0.80;0.52;;;;;;;7.67;53.98;100490.44;5068764;28;20506;-75
2023/01/11 02:49:51;;;;;;;1.17;0.40;;;;;;;7.68;53.81;100500.34;5068907;28;20045;-76
2023/01/11 02:52:27;;;;;;;1.20;0.57;;;;;;;7.66;54.03;100487.84;5068485;28;20448;-76
2023/01/11 02:54:58;;;;;;;0.73;0.50;;;;;;;7.67;53.88;100481.41;5068551;28;20518;-75
2023/01/11 02:57:28;;;;;;;1.00;0.70;;;;;;;7.67;53.66;100479.53;5069217;28;20052;-76
2023/01/11 02:59:59;;;;;;;0.52;0.52;;;;;;;7.68;53.97;100489.44;5067791;28;20056;-75
2023/01/11 03:02:27;;;;;;;1.20;0.73;;;;;;;7.67;53.75;100478.69;5067838;28;20051;-75
2023/01/11 03:04:55;;;;;;;0.50;0.50;;;;;;;7.67;54.20;100465.94;5068081;28;20082;-75
2023/01/11 03:07:41;;;;;;;0.90;0.60;;;;;;;7.71;54.93;100466.53;5068475;28;20047;-74
2023/01/11 03:10:21;;;;;;;1.33;0.60;;;;;;;7.70;55.07;100465.66;5068555;28;20052;-76
2023/01/11 03:13:02;;;;;;;1.33;0.60;;;;;;;7.72;54.89;100468.25;5068353;28;20079;-75
2023/01/11 03:16:02;;;;;;;1.70;0.90;;;;;;;7.74;55.16;100453.53;5066214;28;20049;-73
2023/01/11 03:18:44;;;;;;;1.85;0.70;;;;;;;7.74;55.46;100452.66;5065340;28;20052;-75
2023/01/11 03:21:28;;;;;;;1.88;1.00;;;;;;;7.77;55.01;100452.38;5068779;28;20048;-75
2023/01/11 03:24:10;;;;;;;2.38;0.82;;;;;;;7.78;55.31;100455.00;5068362;28;20045;-74
2023/01/11 03:26:53;;;;;;;1.75;0.90;;;;;;;7.80;54.97;100465.78;5067691;28;20079;-75
2023/01/11 03:29:28;;;;;;;1.33;0.63;;;;;;;7.80;54.98;100454.88;5068038;28;20067;-75
2023/01/11 03:32:07;;;;;;;1.05;0.80;;;;;;;7.83;54.96;100463.69;5068311;28;20046;-75
2023/01/11 03:34:40;;;;;;;1.33;0.80;;;;;;;7.85;54.80;100466.25;5067808;28;20106;-75
2023/01/11 03:37:13;;;;;;;1.30;0.70;;;;;;;7.85;54.44;100468.97;5068437;28;20041;-75
2023/01/11 03:39:46;;;;;;;1.52;0.60;;;;;;;7.88;54.80;100471.44;5068075;28;20135;-75
2023/01/11 03:42:16;;;;;;;1.83;0.90;;;;;;;7.86;54.74;100468.84;5066912;28;20516;-74
2023/01/11 03:44:50;;;;;;;1.35;0.80;;;;;;;7.88;54.85;100461.44;5066273;28;20060;-74
2023/01/11 03:47:23;;;;;;;1.17;0.70;;;;;;;7.88;54.91;100466.00;5068476;28;20049;-74
2023/01/11 03:49:54;;;;;;;1.02;0.60;;;;;;;7.86;54.75;100470.72;5068058;28;20041;-73
2023/01/11 03:52:28;;;;;;;0.57;0.57;;;;;;;7.83;54.63;100463.69;5068307;28;20045;-74
2023/01/11 03:54:59;;;;;;;1.35;0.60;;;;;;;7.82;54.84;100461.94;5067004;28;20567;-75
2023/01/11 03:57:31;;;;;;;1.17;0.68;;;;;;;7.82;55.09;100469.25;5066599;28;20041;-74
2023/01/11 03:59:59;;;;;;;;;;;;;;;7.55;56.07;100461.47;5067675;28;20560;-76
2023/01/11 04:02:35;;;;;;;1.27;0.50;;;;;;;7.76;55.81;100467.03;5066954;28;19920;-75
2023/01/11 04:05:03;;;;;;;0.82;0.70;;;;;;;7.76;55.13;100459.72;5063880;28;20047;-74
2023/01/11 04:07:31;;;;;;;1.67;0.73;;;;;;;7.77;54.99;100455.13;5058765;28;20083;-74
2023/01/11 04:09:59;;;;;;;1.17;0.70;;;;;;;7.76;55.08;100439.78;5047694;28;20414;-75
2023/01/11 04:12:27;;;;;;;2.38;0.90;;;;;;;7.76;55.11;100439.78;5065387;28;20121;-75
2023/01/11 04:14:55;;;;;;;2.30;0.95;;;;;;;7.75;55.00;100447.09;5062935;28;20475;-74
2023/01/11 04:17:23;;;;;;;2.35;0.80;;;;;;;7.77;55.42;100441.50;5060813;28;20048;-75
2023/01/11 04:19:52;;;;;;;1.50;0.80;;;;;;;7.78;55.50;100440.50;5058303;28;20048;-75
2023/01/11 04:22:20;;;;;;;2.05;0.90;;;;;;;7.78;55.41;100435.06;5058368;28;20275;-74
2023/01/11 04:24:48;;;;;;;1.95;0.95;;;;;;;7.79;55.78;100436.78;5050080;28;20040;-74
2023/01/11 04:27:16;;;;;;;2.92;0.90;;;;;;;7.79;55.66;100440.38;5059964;28;20477;-74
2023/01/11 04:29:44;;;;;;;2.05;0.80;;;;;;;7.80;55.78;100431.22;5060420;28;20441;-75
2023/01/11 04:32:12;;;;;;;1.73;0.80;;;;;;;7.81;55.88;100426.66;5057910;28;20281;-74
2023/01/11 04:34:39;;;;;;;1.63;0.80;;;;;;;7.81;55.69;100424.78;5061986;28;20037;-74
2023/01/11 04:37:10;;;;;;;2.25;0.80;;;;;;;7.84;55.83;100424.53;5060348;28;20590;-74
2023/01/11 04:39:38;;;;;;;1.02;0.80;;;;;;;7.83;55.69;100428.25;5055247;28;20048;-73
2023/01/11 04:42:18;;;;;;;2.78;0.80;;;;;;;7.85;56.29;100411.75;5061049;28;20040;-75
2023/01/11 04:44:47;;;;;;;2.00;0.82;;;;;;;7.85;56.18;100422.66;5057090;28;20047;-74
2023/01/11 04:47:16;;;;;;;2.60;0.95;;;;;;;7.87;56.04;100423.41;5054762;28;20337;-74
2023/01/11 04:49:44;;;;;;;2.05;1.20;;;;;;;7.88;56.42;100422.41;5063252;28;20117;-75
2023/01/11 04:52:15;;;;;;;2.25;0.80;;;;;;;7.91;56.35;100427.63;5061085;28;20129;-75
2023/01/11 04:54:43;;;;;;;2.28;1.00;;;;;;;7.90;56.34;100426.75;5062591;28;20124;-74
2023/01/11 04:57:13;;;;;;;1.00;0.80;;;;;;;7.93;56.02;100417.44;5058708;28;20041;-73
2023/01/11 04:59:41;;;;;;;1.08;0.88;;;;;;;7.94;56.46;100420.03;5078638;28;20052;-74
2023/01/11 05:02:09;;;;;;;1.20;0.85;;;;;;;7.95;56.44;100418.19;5059131;28;20056;-75
2023/01/11 05:04:37;;;;;;;3.55;0.98;;;;;;;7.98;56.11;100422.50;5062056;28;20128;-74
2023/01/11 05:07:08;;;;;;;2.20;0.80;;;;;;;8.00;56.63;100421.41;5063070;28;20389;-74
2023/01/11 05:09:37;;;;;;;1.63;0.77;;;;;;;8.01;56.81;100414.09;5061463;28;20481;-75
2023/01/11 05:12:05;;;;;;;0.80;0.68;;;;;;;8.00;56.38;100415.94;5060756;28;20044;-75
2023/01/11 05:14:33;;;;;;;1.30;0.73;;;;;;;8.03;56.46;100417.53;5054327;28;20566;-75
2023/01/11 05:17:00;;;;;;;1.40;0.80;;;;;;;8.04;56.56;100406.50;5054856;28;20399;-74
2023/01/11 05:19:28;;;;;;;1.50;0.80;;;;;;;8.07;56.69;100419.03;5063758;28;20045;-74
2023/01/11 05:21:56;;;;;;;1.17;0.65;;;;;;;8.08;56.65;100413.44;5065293;28;20036;-74
2023/01/11 05:24:24;;;;;;;2.15;0.70;;;;;;;8.10;56.60;100416.00;5062216;28;20032;-74
2023/01/11 05:26:53;;;;;;;1.67;0.68;;;;;;;8.14;56.98;100423.84;5059663;28;20440;-75
2023/01/11 05:29:21;;;;;;;1.90;0.80;;;;;;;8.14;57.07;100412.94;5059922;28;20046;-75
2023/01/11 05:31:49;;;;;;;1.35;0.50;;;;;;;8.17;56.86;100420.03;5057908;28;20056;-74
2023/01/11 05:34:18;;;;;;;0.95;0.63;;;;;;;8.20;57.15;100417.00;5063121;28;20048;-75
2023/01/11 05:36:46;;;;;;;0.90;0.60;;;;;;;8.21;57.10;100408.72;5058061;28;20067;-75
2023/01/11 05:39:14;;;;;;;0.95;0.55;;;;;;;8.23;56.97;100420.34;5056900;28;20464;-73
2023/01/11 05:41:42;;;;;;;0.73;0.47;;;;;;;8.25;57.42;100404.75;5061585;28;20452;-73
2023/01/11 05:46:59;;;;;;;1.25;0.50;;;;;;;8.29;57.21;100408.06;5058023;28;20155;-73
2023/01/11 05:49:26;;;;;;;1.10;0.45;;;;;;;8.32;57.29;100403.22;5062163;28;20048;-73
2023/01/11 05:51:54;;;;;;;1.05;0.50;;;;;;;8.35;57.42;100415.69;5066568;28;20409;-73
2023/01/11 05:54:22;;;;;;;0.63;0.45;;;;;;;8.37;57.53;100423.75;5067115;28;20040;-72
2023/01/11 05:56:50;;;;;;;0.82;0.40;;;;;;;8.40;57.42;100418.06;5067512;28;20048;-72
2023/01/11 05:59:19;;;;;;;2.05;0.40;;;;;;;8.43;57.38;100418.63;5054214;28;20116;-73
2023/01/11 06:01:48;;;;;;;1.20;0.50;;;;;;;8.44;57.43;100419.50;5053700;28;20045;-72
2023/01/11 06:04:16;;;;;;;0.68;0.50;;;;;;;8.45;57.59;100411.19;5072053;28;20052;-73
2023/01/11 06:06:45;;;;;;;0.47;0.47;;;;;;;8.47;57.29;100414.66;5060710;28;20475;-72
2023/01/11 06:09:13;;;;;;;0.65;0.45;;;;;;;8.49;57.69;100404.50;5059535;28;20074;-72
2023/01/11 06:11:42;;;;;;;1.35;0.50;;;;;;;8.52;57.72;100412.41;5065269;28;20041;-72
2023/01/11 06:14:10;;;;;;;1.17;0.50;;;;;;;8.53;57.46;100403.22;5059634;28;20044;-72
2023/01/11 06:16:39;;;;;;;0.43;0.43;;;;;;;8.56;57.52;100411.16;5061159;28;20044;-73
2023/01/11 06:19:07;;;;;;;0.35;0.35;;;;;;;8.56;58.00;100408.41;5065119;28;20379;-72
2023/01/11 06:21:34;;;;;;;0.52;0.38;;;;;;;8.58;57.57;100405.56;5060135;28;20044;-72
2023/01/11 06:24:02;;;;;;;0.80;0.40;;;;;;;8.60;57.61;100409.00;5061295;28;20485;-72
2023/01/11 06:26:31;;;;;;;0.50;0.30;;;;;;;8.61;57.83;100411.59;5056440;28;20060;-72
2023/01/11 06:28:59;;;;;;;0.77;0.45;;;;;;;8.63;57.42;100409.63;5069091;28;20056;-72
2023/01/11 06:31:26;;;;;;;0.32;0.30;;;;;;;8.66;57.63;100409.38;5064171;28;20047;-73
2023/01/11 06:33:56;;;;;;;0.55;0.40;;;;;;;8.71;57.83;100411.69;5064687;28;20057;-73
2023/01/11 06:36:23;;;;;;;0.85;0.50;;;;;;;8.73;57.87;100412.41;5064354;28;20447;-73
2023/01/11 06:38:52;;;;;;;1.23;0.40;;;;;;;8.77;57.44;100407.53;5064789;28;20079;-73
2023/01/11 06:41:20;;;;;;;0.55;0.40;;;;;;;8.80;57.56;100408.16;5062862;28;20504;-73
2023/01/11 06:43:47;;;;;;;1.00;0.70;;;;;;;8.84;57.63;100406.88;5061988;28;20052;-73
2023/01/11 06:46:17;;;;;;;1.50;0.70;;;;;;;8.88;57.55;100413.81;5055641;28;20059;-72
2023/01/11 06:48:46;;;;;;;0.77;0.50;;;;;;;8.90;57.73;100414.53;5062768;28;20041;-73
2023/01/11 06:51:16;;;;;;;1.48;0.52;;;;;;;8.93;57.60;100411.53;5064591;28;20049;-73
2023/01/11 06:53:45;;;;;;;0.80;0.60;;;;;;;8.95;57.79;100411.41;5064856;28;20262;-73
2023/01/11 06:56:14;;;;;;;1.20;0.50;;;;;;;8.97;58.03;100415.72;5064669;28;20412;-73
2023/01/11 06:58:42;;;;;;;1.45;0.47;;;;;;;8.98;58.05;100414.72;5063816;28;20040;-73
2023/01/11 07:01:14;;;;;;;1.23;0.55;;;;;;;9.02;57.80;100423.50;5063226;28;20144;-73
2023/01/11 07:03:42;;;;;;;1.23;0.40;;;;;;;9.04;57.75;100416.03;5063510;28;20125;-73
2023/01/11 07:06:10;;;;;;;1.88;0.60;;;;;;;9.07;57.76;100429.44;5061834;28;20145;-74
2023/01/11 07:08:39;;;;;;;2.83;1.20;;;;;;;9.12;57.44;100431.75;5061755;28;20036;-73
2023/01/11 07:11:08;;;;;;;1.70;0.60;;;;;;;9.14;57.40;100435.22;5065138;28;20148;-72
2023/01/11 07:13:37;;;;;;;1.13;0.63;;;;;;;9.17;57.63;100446.72;5058107;28;20037;-73
2023/01/11 07:16:05;;;;;;;1.58;0.68;;;;;;;9.19;57.74;100441.13;5063795;28;20052;-73
2023/01/11 07:18:32;;;;;;;0.90;0.50;;;;;;;9.21;57.81;100455.50;5060994;28;20032;-73
2023/01/11 07:21:01;;;;;;;0.45;0.35;;;;;;;9.24;57.62;100467.03;5063024;28;20044;-73
2023/01/11 07:23:29;;;;;;;0.30;0.30;;;;;;;9.28;58.20;100460.28;5060867;28;20123;-73
2023/01/11 07:25:58;;;;;;;0.57;0.35;;;;;;;9.33;57.91;100457.16;5063091;28;20049;-73
2023/01/11 07:28:27;;;;;;;0.50;0.40;;;;;;;9.35;57.96;100477.84;5060116;28;20121;-73
2023/01/11 07:30:55;;;;;;;1.00;0.52;;;;;;;9.37;58.10;100484.06;5063713;28;20143;-73
2023/01/11 07:33:26;;;;;;;0.52;0.40;;;;;;;9.42;58.08;100490.00;5056603;28;20359;-73
2023/01/11 07:35:54;;;;;;;0.75;0.40;;;;;;;9.45;57.88;100494.34;5062807;28;20048;-73
2023/01/11 07:38:22;;;;;;;1.23;0.40;;;;;;;9.48;57.85;100501.41;5065102;28;20032;-73
2023/01/11 07:40:50;;;;;;;0.40;0.30;;;;;;;9.51;57.86;100495.63;5063622;28;20124;-73
2023/01/11 07:43:21;;;;;;;0.88;0.40;;;;;;;9.55;58.12;100480.72;5058093;28;20036;-73
2023/01/11 07:45:52;;;;;;;0.20;0.20;;;;;;;9.57;57.74;100492.38;5060524;28;20139;-73
2023/01/11 07:48:25;;;;;;;0.98;0.50;;;;;;;9.60;57.61;100486.63;5060643;28;20056;-73
2023/01/11 07:50:53;;;;;;;0.82;0.40;;;;;;;9.62;57.86;100490.97;5061176;28;20520;-73
2023/01/11 07:53:24;;;;;;;2.55;0.90;;;;;;;9.64;57.45;100485.38;5065474;28;20144;-73
2023/01/11 07:55:52;;;;;;;0.50;0.40;;;;;;;9.67;57.48;100471.41;5060568;28;20048;-73
2023/01/11 07:58:21;;;;;;;0.22;0.22;;;;;;;9.69;57.53;100464.81;5062760;28;20052;-73
2023/01/11 08:00:49;;;;;;;0.55;0.20;;;;;;;9.70;57.64;100462.94;5064632;28;20064;-73
2023/01/11 08:03:17;;;;;;;0.32;0.28;;;;;;;9.72;57.40;100460.94;5063554;28;20036;-73
2023/01/11 08:05:49;;;;;;;0.65;0.30;;;;;;;9.75;57.86;100472.44;5064215;28;20566;-74
2023/01/11 08:08:17;;;;;;;0.38;0.17;;;;;;;9.75;57.43;100501.66;5059786;28;20078;-74
2023/01/11 08:10:45;;;;;;;0.63;0.50;;;;;;;9.77;57.32;100502.38;5058657;28;20044;-74
2023/01/11 08:16:01;;;;;;;0.75;0.40;;;;;;;9.80;57.75;100518.50;5060851;28;20121;-75
2023/01/11 08:18:29;;;;;;;1.10;0.63;;;;;;;9.79;57.65;100525.84;5057177;28;20422;-74
2023/01/11 08:20:56;;;;;;;1.08;0.70;;;;;;;9.81;57.10;100529.31;5057265;28;20055;-73
2023/01/11 08:23:25;;;;;;;1.77;0.63;;;;;;;9.82;57.64;100525.56;5064260;28;20051;-73
2023/01/11 08:25:56;;;;;;;1.33;0.50;;;;;;;9.84;57.63;100522.69;5050452;28;20044;-71
2023/01/11 08:28:24;;;;;;;1.17;0.50;;;;;;;9.84;57.28;100518.09;5056369;28;20048;-71
2023/01/11 08:30:52;;;;;;;1.40;0.80;;;;;;;9.85;57.53;100508.03;5072652;28;20732;-70
2023/01/11 08:33:21;;;;;;;1.25;0.65;;;;;;;9.88;57.56;100515.97;5060809;28;20048;-70
2023/01/11 08:35:49;;;;;;;1.10;0.70;;;;;;;9.88;57.18;100517.81;5062590;28;20497;-71
2023/01/11 08:38:17;;;;;;;1.17;0.75;;;;;;;9.90;57.51;100532.22;5062331;28;20055;-70
2023/01/11 08:40:45;;;;;;;3.10;0.93;;;;;;;9.91;57.30;100533.94;5056099;28;20568;-71
2023/01/11 08:43:13;;;;;;;2.42;0.90;;;;;;;9.91;57.19;100540.25;5059884;28;20500;-71
2023/01/11 08:45:40;;;;;;;3.05;1.48;;;;;;;9.93;57.59;100549.19;5060920;28;20041;-73
2023/01/11 08:48:08;;;;;;;2.08;0.90;;;;;;;9.94;57.61;100548.19;5062774;28;20048;-73
2023/01/11 08:50:37;;;;;;;2.03;0.88;;;;;;;9.97;57.05;100560.72;5060457;28;20102;-74
2023/01/11 08:53:05;;;;;;;1.73;1.00;;;;;;;9.95;57.46;100580.00;5060595;28;20513;-72
2023/01/11 08:55:33;;;;;;;2.28;1.20;;;;;;;9.95;57.34;100579.13;5060540;28;20324;-72
2023/01/11 08:58:01;;;;;;;2.88;1.20;;;;;;;9.95;56.75;100579.13;5062100;28;20089;-71
2023/01/11 09:00:29;;;;;;;1.90;1.00;;;;;;;9.91;57.07;100574.94;5061193;28;20105;-70
2023/01/11 09:02:59;;;;;;;2.83;1.13;;;;;;;9.87;56.92;100587.16;5054441;28;20040;-72
2023/01/11 09:05:28;;;;;;;2.72;1.20;;;;;;;9.81;56.82;100592.19;5059941;28;20048;-71
2023/01/11 09:07:57;;;;;;;2.95;1.27;;;;;;;9.78;57.19;100597.91;5056440;28;20045;-72
2023/01/11 09:10:26;;;;;;;3.78;1.40;;;;;;;9.73;56.82;100602.91;5057804;28;20498;-72
2023/01/11 09:12:54;;;;;;;3.20;1.55;;;;;;;9.71;57.30;100623.19;5061171;28;20040;-72
2023/01/11 09:15:22;;;;;;;4.97;1.90;;;;;;;9.69;57.08;100627.91;5057382;28;20098;-71
2023/01/11 09:17:50;;;;;;;3.80;1.95;;;;;;;9.68;57.44;100631.63;5063740;28;20043;-72
2023/01/11 09:20:19;;;;;;;4.10;2.15;;;;;;;9.67;57.27;100629.91;5064937;28;20592;-71
2023/01/11 09:22:48;;;;;;;3.92;2.40;;;;;;;9.67;57.29;100632.63;5058837;28;20033;-72
2023/01/11 09:25:20;;;;;;;6.28;2.90;;;;;;;9.66;57.20;100634.50;5059564;28;20047;-71
2023/01/11 09:27:49;;;;;;;6.93;2.78;;;;;;;9.65;57.35;100634.66;5066763;28;20086;-71
2023/01/11 09:30:19;;;;;;;5.43;3.08;;;;;;;9.66;57.14;100637.22;5067494;28;20513;-72
2023/01/11 09:32:47;;;;;;;5.57;2.88;;;;;;;9.65;57.20;100643.72;5066704;28;20063;-71
2023/01/11 09:35:16;;;;;;;6.43;3.30;;;;;;;9.67;56.96;100659.94;5061691;28;20835;-71
2023/01/11 09:37:48;;;;;;;7.63;3.47;;;;;;;9.67;57.56;100652.63;5068493;28;20405;-71
2023/01/11 09:40:22;;;;;;;5.23;3.47;;;;;;;9.65;57.43;100662.84;5059164;28;20044;-71
2023/01/11 09:42:51;;;;;;;7.53;3.75;;;;;;;9.66;57.48;100656.34;5062421;28;20052;-74
2023/01/11 09:45:22;;;;;;;6.32;3.15;;;;;;;9.67;57.00;100660.81;5054466;28;20596;-72
2023/01/11 09:47:55;;;;;;;4.63;2.30;;;;;;;9.68;57.49;100658.97;5065547;28;20122;-71
2023/01/11 09:50:28;;;;;;;5.13;2.22;;;;;;;9.68;57.08;100680.81;5066578;28;20076;-72
2023/01/11 09:52:58;;;;;;;5.30;1.98;;;;;;;9.66;57.06;100677.38;5064113;28;20075;-72
2023/01/11 09:55:34;;;;;;;6.38;1.92;;;;;;;9.69;57.10;100677.09;5066200;28;20456;-73
2023/01/11 09:58:27;;;;;;;6.00;2.08;;;;;;;9.66;57.37;100680.94;5062643;28;20037;-72
2023/01/11 10:01:05;;;;;;;4.97;1.63;;;;;;;9.65;57.00;100681.97;5065254;28;20052;-72
2023/01/11 10:03:51;;;;;;;5.80;1.77;;;;;;;9.67;56.83;100695.47;5058954;28;20354;-72
2023/01/11 10:06:25;;;;;;;5.65;2.00;;;;;;;9.65;56.78;100687.44;5071109;23;20055;-81
2023/01/11 10:09:13;;;;;;;7.88;2.00;;;;;;;9.66;56.82;100675.47;5041984;28;20048;-82
2023/01/11 10:12:15;;;;;;;6.65;1.70;;;;;;;9.65;56.73;100692.03;5050428;28;20064;-79
2023/01/11 10:15:12;;;;;;;5.90;1.92;;;;;;;9.63;56.78;100700.34;5042715;28;20045;-80
2023/01/11 10:18:16;;;;;;;8.05;1.92;;;;;;;9.63;56.98;100699.50;5039525;28;20044;-79
2023/01/11 10:21:11;;;;;;;4.18;1.63;;;;;;;9.61;56.64;100705.06;5046336;28;20052;-80
2023/01/11 10:23:48;;;;;;;7.20;1.73;;;;;;;9.62;56.47;100698.63;5053514;28;20396;-78
2023/01/11 10:26:26;;;;;;;5.22;1.67;;;;;;;9.62;56.85;100705.94;5031705;28;20049;-79
2023/01/11 10:29:20;;;;;;;5.97;1.90;;;;;;;9.62;56.45;100715.00;5047827;28;20044;-80
2023/01/11 10:32:09;;;;;;;5.78;2.00;;;;;;;9.58;56.59;100713.53;5032036;28;20045;-81
2023/01/11 10:34:58;;;;;;;5.82;1.92;;;;;;;9.58;56.90;100729.91;5046124;28;20461;-79
2023/01/11 10:37:48;;;;;;;7.50;2.00;;;;;;;9.60;56.70;100735.25;5038277;28;20044;-81
2023/01/11 10:40:39;;;;;;;6.72;1.98;;;;;;;9.58;56.50;100743.59;5037914;28;20051;-80
2023/01/11 10:43:15;;;;;;;6.45;2.25;;;;;;;9.59;56.74;100739.00;5049615;28;20037;-80
2023/01/11 10:45:50;;;;;;;8.48;2.38;;;;;;;9.59;56.43;100742.59;5023089;28;20152;-80
2023/01/11 10:48:24;;;;;;;7.45;2.28;;;;;;;9.60;56.63;100740.72;5029440;28;20037;-80
2023/01/11 10:51:03;;;;;;;7.93;2.50;;;;;;;9.62;56.71;100736.00;5046741;28;20055;-80
2023/01/11 10:53:37;;;;;;;6.20;2.30;;;;;;;9.62;56.61;100728.69;5028047;28;20160;-81
2023/01/11 10:56:18;;;;;;;6.13;2.33;;;;;;;9.63;56.83;100726.81;5052605;28;20148;-80
2023/01/11 10:59:03;;;;;;;7.15;2.60;;;;;;;9.63;56.56;100732.28;5045177;28;20483;-79
2023/01/11 11:01:49;;;;;;;7.78;2.40;;;;;;;9.64;57.43;100729.41;5038879;28;20072;-83
2023/01/11 11:04:34;;;;;;;6.65;2.55;;;;;;;9.69;57.38;100729.88;5035395;28;20045;-82
2023/01/11 11:07:11;;;;;;;7.85;2.53;;;;;;;9.71;57.06;100727.03;5059064;28;20063;-83
2023/01/11 11:09:50;;;;;;;7.85;2.13;;;;;;;9.75;56.78;100725.75;5052836;28;20052;-82
2023/01/11 11:12:22;;;;;;;7.50;2.38;;;;;;;9.77;56.62;100724.63;5052162;28;20263;-82
2023/01/11 11:14:59;;;;;;;6.32;2.25;;;;;;;9.78;56.37;100726.34;5045938;28;20419;-81
2023/01/11 11:17:31;;;;;;;7.07;2.35;;;;;;;9.82;56.62;100727.81;5032533;28;20054;-81
2023/01/11 11:19:59;;;;;;;;;;;;;;;9.57;57.27;100738.28;5047032;28;20107;-81
2023/01/11 11:22:27;;;;;;;6.28;2.22;;;;;;;9.79;56.22;100740.88;5051230;28;19928;-81
2023/01/11 11:25:03;;;;;;;8.23;2.50;;;;;;;9.84;55.91;100731.28;5036930;28;20115;-81
2023/01/11 11:27:40;;;;;;;5.95;2.70;;;;;;;9.88;56.23;100750.16;5053134;28;20048;-82
2023/01/11 11:30:11;;;;;;;5.85;2.40;;;;;;;9.87;55.86;100745.69;5055065;28;20127;-81
2023/01/11 11:32:46;;;;;;;4.97;2.30;;;;;;;9.88;56.26;100758.38;5047027;28;20050;-82
2023/01/11 11:35:30;;;;;;;7.80;3.17;;;;;;;9.89;56.57;100747.31;5038540;28;20045;-81
2023/01/11 11:37:58;;;;;;;6.32;2.60;;;;;;;9.89;56.21;100740.97;5038201;28;20037;-82
2023/01/11 11:40:32;;;;;;;6.28;2.53;;;;;;;9.96;56.42;100736.69;5047182;28;20042;-81
2023/01/11 11:43:12;;;;;;;6.60;2.85;;;;;;;9.97;56.28;100750.25;5027464;28;20376;-81
2023/01/11 11:45:51;;;;;;;6.88;2.60;;;;;;;10.01;56.14;100743.50;5049741;28;20479;-81
2023/01/11 11:48:22;;;;;;;6.43;2.63;;;;;;;10.05;56.11;100744.09;5040393;28;20072;-81
2023/01/11 11:50:51;;;;;;;7.68;3.58;;;;;;;10.11;55.77;100754.50;5033692;28;20514;-81
2023/01/11 11:53:41;;;;;;;5.13;2.47;;;;;;;10.15;55.57;100759.56;5031561;28;20507;-80
2023/01/11 11:56:20;;;;;;;6.40;2.80;;;;;;;10.21;55.74;100759.03;5034945;28;20045;-81
2023/01/11 11:58:49;;;;;;;6.93;2.58;;;;;;;10.27;55.88;100767.69;5047851;28;20094;-81
2023/01/11 12:01:27;;;;;;;6.15;2.25;;;;;;;10.36;55.49;100761.41;5038053;28;20041;-80
2023/01/11 12:04:00;;;;;;;3.85;2.10;;;;;;;10.41;55.59;100757.25;5037994;28;20410;-81
2023/01/11 12:06:28;;;;;;;;;;;;;;;10.20;55.98;100740.03;5042628;28;20063;-81
2023/01/11 12:09:00;;;;;;;7.88;1.98;;;;;;;10.47;55.22;100751.25;5038846;28;19920;-82
2023/01/11 12:11:31;;;;;;;6.07;1.80;;;;;;;10.59;54.69;100754.78;5054833;28;20048;-81
2023/01/11 12:14:03;;;;;;;4.75;1.92;;;;;;;10.67;54.05;100760.44;5049909;28;20060;-81